sensor_id;sensor_type;location;lat;lon;timestamp;P1;durP1;ratioP1;P2;durP2;ratioP2
66087;SDS011;52872;52.994;6.940;2022-12-18T00:01:29;82.18;;;32.88;;
66087;SDS011;52872;52.994;6.940;2022-12-18T00:04:01;96.15;;;42.13;;
66087;SDS011;52872;52.994;6.940;2022-12-18T00:06:30;93.85;;;36.17;;
66087;SDS011;52872;52.994;6.940;2022-12-18T00:08:59;81.18;;;30.67;;
66087;SDS011;52872;52.994;6.940;2022-12-18T00:11:28;83.60;;;33.42;;
66087;SDS011;52872;52.994;6.940;2022-12-18T00:13:57;78.13;;;29.75;;
66087;SDS011;52872;52.994;6.940;2022-12-18T00:16:25;71.78;;;27.10;;
66087;SDS011;52872;52.994;6.940;2022-12-18T00:18:54;64.30;;;25.52;;
66087;SDS011;52872;52.994;6.940;2022-12-18T00:21:22;85.40;;;31.92;;
66087;SDS011;52872;52.994;6.940;2022-12-18T00:23:49;86.75;;;36.10;;
66087;SDS011;52872;52.994;6.940;2022-12-18T00:26:28;64.78;;;30.98;;
66087;SDS011;52872;52.994;6.940;2022-12-18T00:29:01;78.80;;;30.77;;
66087;SDS011;52872;52.994;6.940;2022-12-18T00:31:30;70.75;;;27.92;;
66087;SDS011;52872;52.994;6.940;2022-12-18T00:33:59;79.25;;;31.65;;
66087;SDS011;52872;52.994;6.940;2022-12-18T00:36:31;76.18;;;29.00;;
66087;SDS011;52872;52.994;6.940;2022-12-18T00:39:00;80.35;;;28.55;;
66087;SDS011;52872;52.994;6.940;2022-12-18T00:41:29;82.55;;;29.95;;
66087;SDS011;52872;52.994;6.940;2022-12-18T00:44:15;78.68;;;28.83;;
66087;SDS011;52872;52.994;6.940;2022-12-18T00:46:44;78.03;;;28.00;;
66087;SDS011;52872;52.994;6.940;2022-12-18T00:49:12;64.47;;;22.52;;
66087;SDS011;52872;52.994;6.940;2022-12-18T00:51:39;79.10;;;28.65;;
66087;SDS011;52872;52.994;6.940;2022-12-18T00:54:07;85.45;;;32.25;;
66087;SDS011;52872;52.994;6.940;2022-12-18T00:56:37;91.88;;;31.42;;
66087;SDS011;52872;52.994;6.940;2022-12-18T00:59:13;76.70;;;27.17;;
66087;SDS011;52872;52.994;6.940;2022-12-18T01:01:40;81.95;;;30.80;;
66087;SDS011;52872;52.994;6.940;2022-12-18T01:04:08;71.95;;;27.67;;
66087;SDS011;52872;52.994;6.940;2022-12-18T01:06:36;77.13;;;30.08;;
66087;SDS011;52872;52.994;6.940;2022-12-18T01:09:03;81.07;;;31.45;;
66087;SDS011;52872;52.994;6.940;2022-12-18T01:11:43;80.72;;;29.77;;
66087;SDS011;52872;52.994;6.940;2022-12-18T01:14:10;82.40;;;31.63;;
66087;SDS011;52872;52.994;6.940;2022-12-18T01:16:37;79.47;;;29.58;;
66087;SDS011;52872;52.994;6.940;2022-12-18T01:19:04;80.95;;;31.17;;
66087;SDS011;52872;52.994;6.940;2022-12-18T01:21:31;84.03;;;30.83;;
66087;SDS011;52872;52.994;6.940;2022-12-18T01:24:02;89.05;;;32.20;;
66087;SDS011;52872;52.994;6.940;2022-12-18T01:26:30;81.45;;;30.45;;
66087;SDS011;52872;52.994;6.940;2022-12-18T01:28:57;77.40;;;30.20;;
66087;SDS011;52872;52.994;6.940;2022-12-18T01:31:26;66.93;;;27.20;;
66087;SDS011;52872;52.994;6.940;2022-12-18T01:33:57;85.90;;;33.17;;
66087;SDS011;52872;52.994;6.940;2022-12-18T01:36:27;84.88;;;32.92;;
66087;SDS011;52872;52.994;6.940;2022-12-18T01:38:55;82.32;;;30.60;;
66087;SDS011;52872;52.994;6.940;2022-12-18T01:41:24;84.18;;;30.25;;
66087;SDS011;52872;52.994;6.940;2022-12-18T01:47:20;89.50;;;31.93;;
66087;SDS011;52872;52.994;6.940;2022-12-18T01:49:48;79.72;;;29.70;;
66087;SDS011;52872;52.994;6.940;2022-12-18T01:52:17;78.57;;;29.38;;
66087;SDS011;52872;52.994;6.940;2022-12-18T01:54:45;82.47;;;31.90;;
66087;SDS011;52872;52.994;6.940;2022-12-18T01:57:14;89.80;;;30.30;;
66087;SDS011;52872;52.994;6.940;2022-12-18T01:59:45;72.97;;;28.88;;
66087;SDS011;52872;52.994;6.940;2022-12-18T02:02:17;84.00;;;29.48;;
66087;SDS011;52872;52.994;6.940;2022-12-18T02:04:45;84.50;;;33.53;;
66087;SDS011;52872;52.994;6.940;2022-12-18T02:10:13;40.88;;;18.70;;
66087;SDS011;52872;52.994;6.940;2022-12-18T02:12:59;82.47;;;33.42;;
66087;SDS011;52872;52.994;6.940;2022-12-18T02:15:50;85.00;;;30.40;;
66087;SDS011;52872;52.994;6.940;2022-12-18T02:18:33;92.85;;;33.70;;
66087;SDS011;52872;52.994;6.940;2022-12-18T02:21:19;87.28;;;33.20;;
66087;SDS011;52872;52.994;6.940;2022-12-18T02:27:09;71.00;;;24.27;;
66087;SDS011;52872;52.994;6.940;2022-12-18T02:29:43;88.50;;;32.70;;
66087;SDS011;52872;52.994;6.940;2022-12-18T02:32:24;95.47;;;35.63;;
66087;SDS011;52872;52.994;6.940;2022-12-18T02:34:54;108.00;;;36.13;;
66087;SDS011;52872;52.994;6.940;2022-12-18T02:37:24;102.97;;;37.72;;
66087;SDS011;52872;52.994;6.940;2022-12-18T02:39:54;97.55;;;35.17;;
66087;SDS011;52872;52.994;6.940;2022-12-18T02:42:23;86.85;;;34.17;;
66087;SDS011;52872;52.994;6.940;2022-12-18T02:44:51;93.85;;;32.70;;
66087;SDS011;52872;52.994;6.940;2022-12-18T02:47:24;77.88;;;29.00;;
66087;SDS011;52872;52.994;6.940;2022-12-18T02:56:07;58.80;;;22.38;;
66087;SDS011;52872;52.994;6.940;2022-12-18T03:01:31;63.15;;;27.55;;
66087;SDS011;52872;52.994;6.940;2022-12-18T03:04:12;67.93;;;27.75;;
66087;SDS011;52872;52.994;6.940;2022-12-18T03:06:45;56.97;;;23.92;;
66087;SDS011;52872;52.994;6.940;2022-12-18T03:09:21;58.67;;;25.77;;
66087;SDS011;52872;52.994;6.940;2022-12-18T03:11:54;39.70;;;19.30;;
66087;SDS011;52872;52.994;6.940;2022-12-18T03:14:45;43.28;;;21.02;;
66087;SDS011;52872;52.994;6.940;2022-12-18T03:17:16;47.45;;;20.48;;
66087;SDS011;52872;52.994;6.940;2022-12-18T03:19:47;58.17;;;23.42;;
66087;SDS011;52872;52.994;6.940;2022-12-18T03:22:15;43.75;;;21.13;;
66087;SDS011;52872;52.994;6.940;2022-12-18T03:24:47;57.60;;;24.02;;
66087;SDS011;52872;52.994;6.940;2022-12-18T03:27:17;50.80;;;20.50;;
66087;SDS011;52872;52.994;6.940;2022-12-18T03:29:48;48.20;;;22.50;;
66087;SDS011;52872;52.994;6.940;2022-12-18T03:32:28;57.05;;;24.17;;
66087;SDS011;52872;52.994;6.940;2022-12-18T03:34:59;61.27;;;26.67;;
66087;SDS011;52872;52.994;6.940;2022-12-18T03:37:34;60.03;;;23.80;;
66087;SDS011;52872;52.994;6.940;2022-12-18T03:40:02;58.35;;;23.25;;
66087;SDS011;52872;52.994;6.940;2022-12-18T03:45:10;51.15;;;22.23;;
66087;SDS011;52872;52.994;6.940;2022-12-18T03:56:01;53.95;;;24.35;;
66087;SDS011;52872;52.994;6.940;2022-12-18T03:58:36;59.88;;;23.63;;
66087;SDS011;52872;52.994;6.940;2022-12-18T04:01:20;55.53;;;23.52;;
66087;SDS011;52872;52.994;6.940;2022-12-18T04:03:50;52.47;;;22.40;;
66087;SDS011;52872;52.994;6.940;2022-12-18T04:06:18;50.75;;;21.33;;
66087;SDS011;52872;52.994;6.940;2022-12-18T04:08:46;50.33;;;22.67;;
66087;SDS011;52872;52.994;6.940;2022-12-18T04:11:16;54.80;;;21.95;;
66087;SDS011;52872;52.994;6.940;2022-12-18T04:13:46;47.97;;;20.27;;
66087;SDS011;52872;52.994;6.940;2022-12-18T04:16:18;41.85;;;18.35;;
66087;SDS011;52872;52.994;6.940;2022-12-18T04:18:49;52.72;;;22.05;;
66087;SDS011;52872;52.994;6.940;2022-12-18T04:21:18;51.70;;;21.58;;
66087;SDS011;52872;52.994;6.940;2022-12-18T04:23:47;56.55;;;24.15;;
66087;SDS011;52872;52.994;6.940;2022-12-18T04:26:16;54.40;;;23.73;;
66087;SDS011;52872;52.994;6.940;2022-12-18T04:28:52;47.63;;;21.33;;
66087;SDS011;52872;52.994;6.940;2022-12-18T04:31:19;49.03;;;21.88;;
66087;SDS011;52872;52.994;6.940;2022-12-18T04:33:47;52.17;;;22.67;;
66087;SDS011;52872;52.994;6.940;2022-12-18T04:36:14;48.15;;;21.70;;
66087;SDS011;52872;52.994;6.940;2022-12-18T04:38:43;42.22;;;20.17;;
66087;SDS011;52872;52.994;6.940;2022-12-18T04:41:13;42.55;;;19.33;;
66087;SDS011;52872;52.994;6.940;2022-12-18T04:43:45;43.40;;;18.65;;
66087;SDS011;52872;52.994;6.940;2022-12-18T04:46:12;43.13;;;20.30;;
66087;SDS011;52872;52.994;6.940;2022-12-18T04:48:39;50.25;;;22.05;;
66087;SDS011;52872;52.994;6.940;2022-12-18T04:51:06;39.38;;;19.60;;
66087;SDS011;52872;52.994;6.940;2022-12-18T04:53:34;50.38;;;20.55;;
66087;SDS011;52872;52.994;6.940;2022-12-18T04:56:08;47.33;;;20.30;;
66087;SDS011;52872;52.994;6.940;2022-12-18T04:58:37;39.25;;;17.50;;
66087;SDS011;52872;52.994;6.940;2022-12-18T05:01:06;38.17;;;19.88;;
66087;SDS011;52872;52.994;6.940;2022-12-18T05:03:34;47.15;;;21.25;;
66087;SDS011;52872;52.994;6.940;2022-12-18T05:06:01;50.30;;;22.00;;
66087;SDS011;52872;52.994;6.940;2022-12-18T05:08:29;42.70;;;19.33;;
66087;SDS011;52872;52.994;6.940;2022-12-18T05:11:02;47.42;;;22.13;;
66087;SDS011;52872;52.994;6.940;2022-12-18T05:13:31;43.70;;;19.80;;
66087;SDS011;52872;52.994;6.940;2022-12-18T05:15:58;43.50;;;19.52;;
66087;SDS011;52872;52.994;6.940;2022-12-18T05:18:25;41.08;;;18.20;;
66087;SDS011;52872;52.994;6.940;2022-12-18T05:20:53;44.13;;;20.85;;
66087;SDS011;52872;52.994;6.940;2022-12-18T05:23:21;41.97;;;20.23;;
66087;SDS011;52872;52.994;6.940;2022-12-18T05:25:56;41.58;;;18.77;;
66087;SDS011;52872;52.994;6.940;2022-12-18T05:28:25;39.17;;;17.60;;
66087;SDS011;52872;52.994;6.940;2022-12-18T05:30:57;38.35;;;17.83;;
66087;SDS011;52872;52.994;6.940;2022-12-18T05:33:26;40.40;;;18.33;;
66087;SDS011;52872;52.994;6.940;2022-12-18T05:35:59;46.45;;;19.92;;
66087;SDS011;52872;52.994;6.940;2022-12-18T05:38:29;39.17;;;19.58;;
66087;SDS011;52872;52.994;6.940;2022-12-18T05:40:58;37.92;;;17.45;;
66087;SDS011;52872;52.994;6.940;2022-12-18T05:43:25;41.03;;;19.90;;
66087;SDS011;52872;52.994;6.940;2022-12-18T05:45:53;41.35;;;19.15;;
66087;SDS011;52872;52.994;6.940;2022-12-18T05:48:21;40.70;;;18.48;;
66087;SDS011;52872;52.994;6.940;2022-12-18T05:50:48;39.40;;;17.80;;
66087;SDS011;52872;52.994;6.940;2022-12-18T05:53:17;32.08;;;14.88;;
66087;SDS011;52872;52.994;6.940;2022-12-18T05:55:45;32.78;;;16.00;;
66087;SDS011;52872;52.994;6.940;2022-12-18T05:58:13;43.50;;;21.23;;
66087;SDS011;52872;52.994;6.940;2022-12-18T06:00:42;38.30;;;19.15;;
66087;SDS011;52872;52.994;6.940;2022-12-18T06:03:11;38.50;;;19.30;;
66087;SDS011;52872;52.994;6.940;2022-12-18T06:05:40;37.45;;;18.00;;
66087;SDS011;52872;52.994;6.940;2022-12-18T06:08:09;35.85;;;18.45;;
66087;SDS011;52872;52.994;6.940;2022-12-18T06:10:38;38.13;;;19.65;;
66087;SDS011;52872;52.994;6.940;2022-12-18T06:13:06;36.60;;;20.08;;
66087;SDS011;52872;52.994;6.940;2022-12-18T06:15:35;40.22;;;18.77;;
66087;SDS011;52872;52.994;6.940;2022-12-18T06:18:03;37.72;;;19.83;;
66087;SDS011;52872;52.994;6.940;2022-12-18T06:20:30;40.67;;;20.67;;
66087;SDS011;52872;52.994;6.940;2022-12-18T06:22:59;40.70;;;20.35;;
66087;SDS011;52872;52.994;6.940;2022-12-18T06:25:26;33.47;;;16.45;;
66087;SDS011;52872;52.994;6.940;2022-12-18T06:27:53;44.40;;;19.42;;
66087;SDS011;52872;52.994;6.940;2022-12-18T06:30:20;37.75;;;18.75;;
66087;SDS011;52872;52.994;6.940;2022-12-18T06:32:50;35.15;;;17.90;;
66087;SDS011;52872;52.994;6.940;2022-12-18T06:35:22;38.42;;;19.80;;
66087;SDS011;52872;52.994;6.940;2022-12-18T06:37:49;37.28;;;18.33;;
66087;SDS011;52872;52.994;6.940;2022-12-18T06:40:16;33.22;;;17.00;;
66087;SDS011;52872;52.994;6.940;2022-12-18T06:42:43;33.35;;;17.52;;
66087;SDS011;52872;52.994;6.940;2022-12-18T06:45:10;34.30;;;18.58;;
66087;SDS011;52872;52.994;6.940;2022-12-18T06:47:37;31.92;;;18.13;;
66087;SDS011;52872;52.994;6.940;2022-12-18T06:50:04;36.10;;;17.42;;
66087;SDS011;52872;52.994;6.940;2022-12-18T06:52:32;36.42;;;16.70;;
66087;SDS011;52872;52.994;6.940;2022-12-18T06:54:59;37.33;;;16.95;;
66087;SDS011;52872;52.994;6.940;2022-12-18T06:57:26;31.52;;;16.58;;
66087;SDS011;52872;52.994;6.940;2022-12-18T06:59:53;27.50;;;14.73;;
66087;SDS011;52872;52.994;6.940;2022-12-18T07:02:20;35.08;;;17.25;;
66087;SDS011;52872;52.994;6.940;2022-12-18T07:04:51;32.45;;;17.38;;
66087;SDS011;52872;52.994;6.940;2022-12-18T07:07:18;31.02;;;16.63;;
66087;SDS011;52872;52.994;6.940;2022-12-18T07:09:46;24.63;;;15.20;;
66087;SDS011;52872;52.994;6.940;2022-12-18T07:12:13;30.55;;;16.73;;
66087;SDS011;52872;52.994;6.940;2022-12-18T07:14:39;31.80;;;16.50;;
66087;SDS011;52872;52.994;6.940;2022-12-18T07:17:06;34.15;;;17.90;;
66087;SDS011;52872;52.994;6.940;2022-12-18T07:19:34;32.75;;;17.70;;
66087;SDS011;52872;52.994;6.940;2022-12-18T07:22:01;23.52;;;12.88;;
66087;SDS011;52872;52.994;6.940;2022-12-18T07:24:28;29.80;;;14.90;;
66087;SDS011;52872;52.994;6.940;2022-12-18T07:26:55;29.63;;;15.38;;
66087;SDS011;52872;52.994;6.940;2022-12-18T07:29:22;30.67;;;16.02;;
66087;SDS011;52872;52.994;6.940;2022-12-18T07:31:49;21.90;;;13.30;;
66087;SDS011;52872;52.994;6.940;2022-12-18T07:34:16;19.05;;;11.80;;
66087;SDS011;52872;52.994;6.940;2022-12-18T07:36:43;26.45;;;14.20;;
66087;SDS011;52872;52.994;6.940;2022-12-18T07:39:11;19.77;;;12.10;;
66087;SDS011;52872;52.994;6.940;2022-12-18T07:41:38;24.25;;;13.32;;
66087;SDS011;52872;52.994;6.940;2022-12-18T07:44:12;20.40;;;12.30;;
66087;SDS011;52872;52.994;6.940;2022-12-18T07:46:39;18.83;;;12.30;;
66087;SDS011;52872;52.994;6.940;2022-12-18T07:49:06;22.10;;;12.40;;
66087;SDS011;52872;52.994;6.940;2022-12-18T07:51:33;18.35;;;9.15;;
66087;SDS011;52872;52.994;6.940;2022-12-18T07:54:00;23.45;;;13.40;;
66087;SDS011;52872;52.994;6.940;2022-12-18T07:56:27;18.63;;;11.00;;
66087;SDS011;52872;52.994;6.940;2022-12-18T07:58:56;18.48;;;9.68;;
66087;SDS011;52872;52.994;6.940;2022-12-18T08:01:24;22.20;;;12.20;;
66087;SDS011;52872;52.994;6.940;2022-12-18T08:03:51;21.00;;;13.00;;
66087;SDS011;52872;52.994;6.940;2022-12-18T08:06:19;26.73;;;12.45;;
66087;SDS011;52872;52.994;6.940;2022-12-18T08:08:47;21.90;;;12.40;;
66087;SDS011;52872;52.994;6.940;2022-12-18T08:11:14;19.67;;;12.55;;
66087;SDS011;52872;52.994;6.940;2022-12-18T08:13:40;69.60;;;36.22;;
66087;SDS011;52872;52.994;6.940;2022-12-18T08:16:08;30.50;;;20.20;;
66087;SDS011;52872;52.994;6.940;2022-12-18T08:18:36;20.98;;;13.43;;
66087;SDS011;52872;52.994;6.940;2022-12-18T08:21:10;58.80;;;49.63;;
66087;SDS011;52872;52.994;6.940;2022-12-18T08:23:49;30.70;;;24.45;;
66087;SDS011;52872;52.994;6.940;2022-12-18T08:26:17;22.67;;;15.38;;
66087;SDS011;52872;52.994;6.940;2022-12-18T08:28:44;30.40;;;21.55;;
66087;SDS011;52872;52.994;6.940;2022-12-18T08:31:11;24.55;;;14.50;;
66087;SDS011;52872;52.994;6.940;2022-12-18T08:33:39;15.73;;;12.25;;
66087;SDS011;52872;52.994;6.940;2022-12-18T08:36:08;19.77;;;12.23;;
66087;SDS011;52872;52.994;6.940;2022-12-18T08:38:36;20.40;;;12.93;;
66087;SDS011;52872;52.994;6.940;2022-12-18T08:41:04;17.45;;;10.02;;
66087;SDS011;52872;52.994;6.940;2022-12-18T08:43:32;15.65;;;10.25;;
66087;SDS011;52872;52.994;6.940;2022-12-18T08:46:18;18.45;;;11.43;;
66087;SDS011;52872;52.994;6.940;2022-12-18T08:48:46;16.10;;;8.88;;
66087;SDS011;52872;52.994;6.940;2022-12-18T08:51:15;14.77;;;8.93;;
66087;SDS011;52872;52.994;6.940;2022-12-18T08:53:43;16.15;;;10.23;;
66087;SDS011;52872;52.994;6.940;2022-12-18T08:56:11;17.35;;;9.23;;
66087;SDS011;52872;52.994;6.940;2022-12-18T08:58:38;16.77;;;10.68;;
66087;SDS011;52872;52.994;6.940;2022-12-18T09:01:07;15.10;;;9.55;;
66087;SDS011;52872;52.994;6.940;2022-12-18T09:03:35;19.85;;;10.63;;
66087;SDS011;52872;52.994;6.940;2022-12-18T09:06:03;15.60;;;10.57;;
66087;SDS011;52872;52.994;6.940;2022-12-18T09:08:31;21.48;;;13.23;;
66087;SDS011;52872;52.994;6.940;2022-12-18T09:10:58;13.32;;;9.63;;
66087;SDS011;52872;52.994;6.940;2022-12-18T09:13:25;15.63;;;10.13;;
66087;SDS011;52872;52.994;6.940;2022-12-18T09:15:53;14.82;;;9.32;;
66087;SDS011;52872;52.994;6.940;2022-12-18T09:18:22;13.25;;;9.02;;
66087;SDS011;52872;52.994;6.940;2022-12-18T09:20:49;15.10;;;9.70;;
66087;SDS011;52872;52.994;6.940;2022-12-18T09:23:18;10.75;;;7.55;;
66087;SDS011;52872;52.994;6.940;2022-12-18T09:25:46;11.73;;;7.75;;
66087;SDS011;52872;52.994;6.940;2022-12-18T09:28:14;12.98;;;8.43;;
66087;SDS011;52872;52.994;6.940;2022-12-18T09:30:48;12.18;;;8.98;;
66087;SDS011;52872;52.994;6.940;2022-12-18T09:33:16;10.98;;;7.25;;
66087;SDS011;52872;52.994;6.940;2022-12-18T09:35:44;12.52;;;10.73;;
66087;SDS011;52872;52.994;6.940;2022-12-18T09:38:13;14.30;;;10.02;;
66087;SDS011;52872;52.994;6.940;2022-12-18T09:40:43;12.90;;;9.30;;
66087;SDS011;52872;52.994;6.940;2022-12-18T09:43:24;13.23;;;9.68;;
66087;SDS011;52872;52.994;6.940;2022-12-18T09:45:58;14.25;;;9.75;;
66087;SDS011;52872;52.994;6.940;2022-12-18T09:51:22;16.95;;;9.93;;
66087;SDS011;52872;52.994;6.940;2022-12-18T09:54:01;13.95;;;9.90;;
66087;SDS011;52872;52.994;6.940;2022-12-18T09:56:34;18.30;;;11.68;;
66087;SDS011;52872;52.994;6.940;2022-12-18T09:59:05;13.03;;;9.87;;
66087;SDS011;52872;52.994;6.940;2022-12-18T10:01:32;14.35;;;8.65;;
66087;SDS011;52872;52.994;6.940;2022-12-18T10:04:08;23.08;;;19.33;;
66087;SDS011;52872;52.994;6.940;2022-12-18T10:06:51;13.00;;;10.68;;
66087;SDS011;52872;52.994;6.940;2022-12-18T10:09:39;12.05;;;7.22;;
66087;SDS011;52872;52.994;6.940;2022-12-18T10:12:21;13.25;;;8.25;;
66087;SDS011;52872;52.994;6.940;2022-12-18T10:18:12;13.63;;;7.40;;
66087;SDS011;52872;52.994;6.940;2022-12-18T10:20:51;11.60;;;7.53;;
66087;SDS011;52872;52.994;6.940;2022-12-18T10:25:53;10.60;;;7.75;;
66087;SDS011;52872;52.994;6.940;2022-12-18T10:28:30;10.05;;;7.88;;
66087;SDS011;52872;52.994;6.940;2022-12-18T10:30:59;13.43;;;9.25;;
66087;SDS011;52872;52.994;6.940;2022-12-18T10:33:30;11.07;;;8.68;;
66087;SDS011;52872;52.994;6.940;2022-12-18T10:35:59;11.95;;;8.93;;
66087;SDS011;52872;52.994;6.940;2022-12-18T10:38:28;11.20;;;7.25;;
66087;SDS011;52872;52.994;6.940;2022-12-18T10:40:59;8.35;;;5.82;;
66087;SDS011;52872;52.994;6.940;2022-12-18T10:43:31;11.07;;;6.65;;
66087;SDS011;52872;52.994;6.940;2022-12-18T10:48:39;10.15;;;7.63;;
66087;SDS011;52872;52.994;6.940;2022-12-18T10:51:08;11.02;;;7.53;;
66087;SDS011;52872;52.994;6.940;2022-12-18T10:53:37;9.93;;;7.88;;
66087;SDS011;52872;52.994;6.940;2022-12-18T10:56:07;10.60;;;6.70;;
66087;SDS011;52872;52.994;6.940;2022-12-18T10:58:36;10.38;;;6.40;;
66087;SDS011;52872;52.994;6.940;2022-12-18T11:06:14;11.70;;;7.60;;
66087;SDS011;52872;52.994;6.940;2022-12-18T11:08:43;9.45;;;5.88;;
66087;SDS011;52872;52.994;6.940;2022-12-18T11:11:23;18.08;;;15.60;;
66087;SDS011;52872;52.994;6.940;2022-12-18T11:14:12;20.85;;;18.08;;
66087;SDS011;52872;52.994;6.940;2022-12-18T11:16:47;10.05;;;8.43;;
66087;SDS011;52872;52.994;6.940;2022-12-18T11:19:37;19.52;;;17.50;;
66087;SDS011;52872;52.994;6.940;2022-12-18T11:22:20;7.20;;;5.93;;
66087;SDS011;52872;52.994;6.940;2022-12-18T11:24:57;8.45;;;5.85;;
66087;SDS011;52872;52.994;6.940;2022-12-18T11:27:59;9.82;;;6.97;;
66087;SDS011;52872;52.994;6.940;2022-12-18T11:30:32;7.93;;;5.00;;
66087;SDS011;52872;52.994;6.940;2022-12-18T11:33:04;11.05;;;7.47;;
66087;SDS011;52872;52.994;6.940;2022-12-18T11:40:47;8.90;;;7.05;;
66087;SDS011;52872;52.994;6.940;2022-12-18T11:43:26;7.85;;;5.55;;
66087;SDS011;52872;52.994;6.940;2022-12-18T11:45:55;8.05;;;5.72;;
66087;SDS011;52872;52.994;6.940;2022-12-18T11:48:39;8.35;;;5.10;;
66087;SDS011;52872;52.994;6.940;2022-12-18T11:51:15;6.75;;;4.10;;
66087;SDS011;52872;52.994;6.940;2022-12-18T11:53:54;8.98;;;5.50;;
66087;SDS011;52872;52.994;6.940;2022-12-18T11:56:35;6.95;;;5.45;;
66087;SDS011;52872;52.994;6.940;2022-12-18T11:59:12;6.25;;;4.85;;
66087;SDS011;52872;52.994;6.940;2022-12-18T12:05:01;9.65;;;5.63;;
66087;SDS011;52872;52.994;6.940;2022-12-18T12:07:53;7.22;;;6.53;;
66087;SDS011;52872;52.994;6.940;2022-12-18T12:17:07;17.52;;;14.50;;
66087;SDS011;52872;52.994;6.940;2022-12-18T12:33:33;8.48;;;6.35;;
66087;SDS011;52872;52.994;6.940;2022-12-18T12:41:39;6.90;;;5.10;;
66087;SDS011;52872;52.994;6.940;2022-12-18T12:44:28;9.57;;;8.68;;
66087;SDS011;52872;52.994;6.940;2022-12-18T12:47:05;7.25;;;5.38;;
66087;SDS011;52872;52.994;6.940;2022-12-18T12:49:40;7.10;;;5.13;;
66087;SDS011;52872;52.994;6.940;2022-12-18T12:52:15;8.05;;;6.30;;
66087;SDS011;52872;52.994;6.940;2022-12-18T12:54:55;11.25;;;7.93;;
66087;SDS011;52872;52.994;6.940;2022-12-18T13:00:30;9.20;;;6.72;;
66087;SDS011;52872;52.994;6.940;2022-12-18T13:03:08;12.05;;;9.30;;
66087;SDS011;52872;52.994;6.940;2022-12-18T13:05:46;8.57;;;6.47;;
66087;SDS011;52872;52.994;6.940;2022-12-18T13:08:27;9.90;;;6.65;;
66087;SDS011;52872;52.994;6.940;2022-12-18T13:10:57;8.57;;;6.35;;
66087;SDS011;52872;52.994;6.940;2022-12-18T13:13:53;7.85;;;7.05;;
66087;SDS011;52872;52.994;6.940;2022-12-18T13:16:23;14.82;;;10.50;;
66087;SDS011;52872;52.994;6.940;2022-12-18T13:18:55;11.38;;;9.40;;
66087;SDS011;52872;52.994;6.940;2022-12-18T13:21:32;8.93;;;7.60;;
66087;SDS011;52872;52.994;6.940;2022-12-18T13:24:21;9.55;;;7.63;;
66087;SDS011;52872;52.994;6.940;2022-12-18T13:26:53;10.65;;;8.15;;
66087;SDS011;52872;52.994;6.940;2022-12-18T13:32:24;7.38;;;5.90;;
66087;SDS011;52872;52.994;6.940;2022-12-18T13:37:50;9.60;;;6.75;;
66087;SDS011;52872;52.994;6.940;2022-12-18T13:48:25;10.05;;;7.47;;
66087;SDS011;52872;52.994;6.940;2022-12-18T13:53:30;9.50;;;7.43;;
66087;SDS011;52872;52.994;6.940;2022-12-18T13:56:02;9.20;;;6.55;;
66087;SDS011;52872;52.994;6.940;2022-12-18T13:58:30;11.40;;;7.63;;
66087;SDS011;52872;52.994;6.940;2022-12-18T14:00:57;11.25;;;7.68;;
66087;SDS011;52872;52.994;6.940;2022-12-18T14:03:26;12.98;;;7.78;;
66087;SDS011;52872;52.994;6.940;2022-12-18T14:05:56;10.13;;;6.88;;
66087;SDS011;52872;52.994;6.940;2022-12-18T14:08:32;11.57;;;6.10;;
66087;SDS011;52872;52.994;6.940;2022-12-18T14:11:01;10.15;;;7.03;;
66087;SDS011;52872;52.994;6.940;2022-12-18T14:13:31;11.25;;;7.38;;
66087;SDS011;52872;52.994;6.940;2022-12-18T14:16:04;9.68;;;6.40;;
66087;SDS011;52872;52.994;6.940;2022-12-18T14:18:36;9.85;;;7.43;;
66087;SDS011;52872;52.994;6.940;2022-12-18T14:21:28;10.52;;;7.28;;
66087;SDS011;52872;52.994;6.940;2022-12-18T14:24:04;11.13;;;7.75;;
66087;SDS011;52872;52.994;6.940;2022-12-18T14:26:31;9.18;;;6.35;;
66087;SDS011;52872;52.994;6.940;2022-12-18T14:29:00;10.73;;;7.80;;
66087;SDS011;52872;52.994;6.940;2022-12-18T14:31:44;10.48;;;8.02;;
66087;SDS011;52872;52.994;6.940;2022-12-18T14:34:17;11.65;;;7.07;;
66087;SDS011;52872;52.994;6.940;2022-12-18T14:36:52;13.02;;;8.75;;
66087;SDS011;52872;52.994;6.940;2022-12-18T14:39:20;11.27;;;8.38;;
66087;SDS011;52872;52.994;6.940;2022-12-18T14:41:48;11.95;;;8.13;;
66087;SDS011;52872;52.994;6.940;2022-12-18T14:44:16;8.75;;;7.75;;
66087;SDS011;52872;52.994;6.940;2022-12-18T14:46:46;10.77;;;7.47;;
66087;SDS011;52872;52.994;6.940;2022-12-18T14:49:48;10.60;;;7.65;;
66087;SDS011;52872;52.994;6.940;2022-12-18T14:52:19;13.05;;;8.88;;
66087;SDS011;52872;52.994;6.940;2022-12-18T14:54:57;10.82;;;7.50;;
66087;SDS011;52872;52.994;6.940;2022-12-18T14:57:35;12.85;;;7.18;;
66087;SDS011;52872;52.994;6.940;2022-12-18T15:00:10;7.88;;;6.65;;
66087;SDS011;52872;52.994;6.940;2022-12-18T15:02:54;12.82;;;8.00;;
66087;SDS011;52872;52.994;6.940;2022-12-18T15:05:27;10.48;;;7.22;;
66087;SDS011;52872;52.994;6.940;2022-12-18T15:07:57;10.13;;;7.80;;
66087;SDS011;52872;52.994;6.940;2022-12-18T15:10:29;10.98;;;6.80;;
66087;SDS011;52872;52.994;6.940;2022-12-18T15:25:48;14.30;;;7.53;;
66087;SDS011;52872;52.994;6.940;2022-12-18T15:28:38;10.13;;;7.13;;
66087;SDS011;52872;52.994;6.940;2022-12-18T15:33:42;12.13;;;7.65;;
66087;SDS011;52872;52.994;6.940;2022-12-18T15:36:13;12.38;;;8.05;;
66087;SDS011;52872;52.994;6.940;2022-12-18T15:38:41;14.60;;;8.65;;
66087;SDS011;52872;52.994;6.940;2022-12-18T15:41:19;8.30;;;6.82;;
66087;SDS011;52872;52.994;6.940;2022-12-18T15:43:50;10.57;;;7.43;;
66087;SDS011;52872;52.994;6.940;2022-12-18T15:46:20;11.77;;;7.78;;
66087;SDS011;52872;52.994;6.940;2022-12-18T15:48:50;8.48;;;7.18;;
66087;SDS011;52872;52.994;6.940;2022-12-18T15:51:28;13.70;;;8.38;;
66087;SDS011;52872;52.994;6.940;2022-12-18T15:54:00;52.00;;;28.02;;
66087;SDS011;52872;52.994;6.940;2022-12-18T15:56:33;14.75;;;10.05;;
66087;SDS011;52872;52.994;6.940;2022-12-18T15:59:19;11.93;;;8.82;;
66087;SDS011;52872;52.994;6.940;2022-12-18T16:01:48;13.02;;;8.38;;
66087;SDS011;52872;52.994;6.940;2022-12-18T16:04:17;17.73;;;13.68;;
66087;SDS011;52872;52.994;6.940;2022-12-18T16:06:49;40.20;;;35.15;;
66087;SDS011;52872;52.994;6.940;2022-12-18T16:09:38;23.52;;;18.67;;
66087;SDS011;52872;52.994;6.940;2022-12-18T16:12:06;18.45;;;16.15;;
66087;SDS011;52872;52.994;6.940;2022-12-18T16:14:37;12.82;;;9.07;;
66087;SDS011;52872;52.994;6.940;2022-12-18T16:17:05;14.30;;;9.27;;
66087;SDS011;52872;52.994;6.940;2022-12-18T16:19:35;36.45;;;32.08;;
66087;SDS011;52872;52.994;6.940;2022-12-18T16:22:03;17.17;;;12.77;;
66087;SDS011;52872;52.994;6.940;2022-12-18T16:24:32;14.00;;;12.43;;
66087;SDS011;52872;52.994;6.940;2022-12-18T16:27:00;16.85;;;12.13;;
66087;SDS011;52872;52.994;6.940;2022-12-18T16:29:27;10.77;;;7.40;;
66087;SDS011;52872;52.994;6.940;2022-12-18T16:31:59;14.05;;;10.52;;
66087;SDS011;52872;52.994;6.940;2022-12-18T16:34:28;12.57;;;7.95;;
66087;SDS011;52872;52.994;6.940;2022-12-18T16:37:02;15.80;;;9.48;;
66087;SDS011;52872;52.994;6.940;2022-12-18T16:39:35;11.35;;;8.00;;
66087;SDS011;52872;52.994;6.940;2022-12-18T16:42:04;10.30;;;6.63;;
66087;SDS011;52872;52.994;6.940;2022-12-18T16:44:39;7.47;;;6.03;;
66087;SDS011;52872;52.994;6.940;2022-12-18T16:47:06;11.50;;;7.20;;
66087;SDS011;52872;52.994;6.940;2022-12-18T16:49:34;10.95;;;8.23;;